Impacts METAR Board
IDs:

KMEM - Memphis Intl, TN, US

Updated at: 1100 UTC 30 Oct 2020
Potential Impact None Slight Moderate High
Time 29/23Z 30/00Z 30/01Z 30/02Z 30/03Z 30/04Z 30/05Z 30/06Z 30/07Z 30/08Z 30/09Z 30/10Z 30/11Z
Temp46 46 47 46 47 46 45 45 46 45 44 41 40
Dewpt43 42 42 42 42 42 41 42 41 40 39 38 38
Altim29.93 29.98 30.03 30.06 30.08 30.11 30.12 30.14 30.16 30.18 30.19 30.22 30.24
VIS4 7 10 10 10 10 10 10 10 10 10 10 10
CIG9 16 16 32 32 34 -- 24 22 20 21 -- --
CoverOVCOVCOVCOVCOVCBKNFEWOVCOVCOVCOVCSCTFEW
FltCatIFRMVFRMVFRVFRVFRVFRVFRMVFRMVFRMVFRMVFRVFRVFR
WXBR------------------------
WDir340350350350340340330300350340360330330
WSpd15 12 11 10 7 7 7 7 11 8 7 4 5
WGst26 21 19 -- -- -- -- -- -- -- -- -- --
Raw hourly METARs
KMEM 292254Z 34015G26KT 4SM BR BKN009 OVC014 08/06 A2993 RMK AO2 PK WND 34028/2241 WSHFT 2141 RAB23E51 SLP136 P0000 T00780061 $
KMEM 292354Z 35012G21KT 7SM BKN016 OVC028 08/06 A2998 RMK AO2 RAB2258E07 SLP152 P0000 60006 T00780056 10100 20078 53047 $
KMEM 300054Z 35011G19KT 10SM BKN016 OVC025 08/06 A3003 RMK AO2 SLP168 T00830056 $
KMEM 300154Z 35010KT 10SM SCT018 OVC032 08/06 A3006 RMK AO2 SLP180 T00780056 $
KMEM 300254Z 34007KT 10SM SCT018 OVC032 08/06 A3008 RMK AO2 SLP187 T00830056 51019 $
KMEM 300354Z 34007KT 10SM SCT018 BKN034 08/06 A3011 RMK AO2 SLP195 T00780056 $
KMEM 300454Z 33007KT 10SM FEW030 07/05 A3012 RMK AO2 SLP199 T00720050 $
KMEM 300554Z 30007KT 10SM OVC024 07/06 A3014 RMK AO2 SLP206 T00720056 10083 20067 401500067 51019 $
KMEM 300654Z 35011KT 10SM SCT014 OVC022 08/05 A3016 RMK AO2 SLP212 T00780050 $
KMEM 300754Z 34008KT 10SM OVC020 07/04 A3018 RMK AO2 SLP220 T00720044 $
KMEM 300854Z 36007KT 10SM BKN021 OVC026 07/04 A3019 RMK AO2 SLP224 T00670039 51018 $
KMEM 300954Z 33004KT 10SM SCT026 05/03 A3022 RMK AO2 SLP233 T00500033 $
KMEM 301054Z 33005KT 10SM FEW026 04/03 A3024 RMK AO2 SLP240 T00440033 $



Page loaded:  11:16 UTC  |   04:16 AM Pacific  |   05:16 AM Mountain  |   06:16 AM Central  |   07:16 AM Eastern

 

ADVISORIES

FORECASTS

FORECASTS

OBSERVATIONS

USER TOOLS

ABOUT US